createdAt,value
2018-03-03T00:01:21.178Z,55.70
2018-03-03T00:03:49.508Z,59.78
2018-03-03T00:06:17.902Z,61.58
2018-03-03T00:08:46.271Z,57.70
2018-03-03T00:11:14.593Z,53.58
2018-03-03T00:13:42.946Z,56.65
2018-03-03T00:16:11.260Z,58.08
2018-03-03T00:18:39.621Z,54.60
2018-03-03T00:21:08.019Z,61.28
2018-03-03T00:23:36.349Z,68.95
2018-03-03T00:26:04.682Z,72.90
2018-03-03T00:28:33.002Z,69.47
2018-03-03T00:31:01.292Z,69.62
2018-03-03T00:33:29.645Z,70.28
2018-03-03T00:35:57.986Z,60.95
2018-03-03T00:38:26.313Z,70.57
2018-03-03T00:40:54.634Z,68.47
2018-03-03T00:43:22.962Z,78.32
2018-03-03T00:45:51.300Z,75.18
2018-03-03T00:48:19.642Z,78.22
2018-03-03T00:50:47.969Z,77.40
2018-03-03T00:53:16.297Z,76.82
2018-03-03T00:55:44.623Z,76.95
2018-03-03T00:58:12.954Z,74.07
2018-03-03T01:00:41.282Z,74.50
2018-03-03T01:03:09.614Z,68.35
2018-03-03T01:05:37.914Z,73.28
2018-03-03T01:08:06.386Z,67.55
2018-03-03T01:10:34.747Z,67.43
2018-03-03T01:13:03.070Z,69.93
2018-03-03T01:15:31.451Z,66.30
2018-03-03T01:17:59.787Z,69.07
2018-03-03T01:20:28.105Z,70.90
2018-03-03T01:22:56.457Z,65.30
2018-03-03T01:25:24.782Z,64.05
2018-03-03T01:27:53.241Z,61.85
2018-03-03T01:30:21.582Z,61.80
2018-03-03T01:32:49.914Z,61.47
2018-03-03T01:35:18.257Z,63.72
2018-03-03T01:37:46.568Z,67.05
2018-03-03T01:40:14.893Z,70.62
2018-03-03T01:42:43.203Z,68.85
2018-03-03T01:45:11.505Z,62.75
2018-03-03T01:47:39.848Z,55.05
2018-03-03T01:50:08.187Z,61.83
2018-03-03T01:52:36.502Z,64.20
2018-03-03T01:55:04.837Z,60.00
2018-03-03T01:57:33.173Z,57.47
2018-03-03T02:00:01.500Z,54.85
2018-03-03T02:02:29.823Z,56.35
2018-03-03T02:04:58.139Z,58.83
2018-03-03T02:07:26.490Z,53.50
2018-03-03T02:09:54.810Z,54.22
2018-03-03T02:12:23.211Z,54.40
2018-03-03T02:14:51.539Z,50.72
2018-03-03T02:17:19.933Z,57.25
2018-03-03T02:19:48.257Z,56.80
2018-03-03T02:22:16.566Z,58.35
2018-03-03T02:24:44.898Z,53.72
2018-03-03T02:27:13.253Z,57.75
2018-03-03T02:29:41.586Z,53.08
2018-03-03T02:32:09.936Z,57.13
2018-03-03T02:34:38.267Z,55.55
2018-03-03T02:37:06.577Z,49.65
2018-03-03T02:39:34.951Z,50.67
2018-03-03T02:42:03.290Z,51.53
2018-03-03T02:44:31.630Z,48.58
2018-03-03T02:46:59.980Z,54.03
2018-03-03T02:49:28.303Z,51.63
2018-03-03T02:51:56.643Z,44.30
2018-03-03T02:54:24.964Z,41.85
2018-03-03T02:56:53.327Z,44.78
2018-03-03T02:59:21.640Z,46.90
2018-03-03T03:01:49.948Z,49.63
2018-03-03T03:04:18.263Z,51.58
2018-03-03T03:06:46.619Z,54.10
2018-03-03T03:09:14.947Z,54.65
2018-03-03T03:11:43.297Z,48.85
2018-03-03T03:14:11.590Z,50.00
2018-03-03T03:16:39.946Z,55.67
2018-03-03T03:19:08.250Z,52.35
2018-03-03T03:21:36.703Z,54.10
2018-03-03T03:24:05.061Z,54.05
2018-03-03T03:26:33.923Z,56.50
2018-03-03T03:29:02.275Z,54.70
2018-03-03T03:31:30.585Z,52.62
2018-03-03T03:33:58.912Z,56.40
2018-03-03T03:36:27.230Z,50.63
2018-03-03T03:38:55.630Z,53.20
2018-03-03T03:41:23.995Z,58.15
2018-03-03T03:43:52.342Z,54.50
2018-03-03T03:46:20.695Z,54.72
2018-03-03T03:48:49.023Z,53.75
2018-03-03T03:51:17.373Z,53.03
2018-03-03T03:53:45.750Z,50.40
2018-03-03T03:56:14.071Z,53.15
2018-03-03T03:58:42.376Z,54.95
2018-03-03T04:01:10.687Z,57.33
2018-03-03T04:03:38.999Z,55.35
2018-03-03T04:06:07.320Z,52.90
2018-03-03T04:08:35.671Z,54.60
2018-03-03T04:11:03.989Z,57.25
2018-03-03T04:13:32.312Z,53.08
2018-03-03T04:16:00.659Z,58.85
2018-03-03T04:18:28.998Z,53.42
2018-03-03T04:20:57.315Z,52.45
2018-03-03T04:23:25.647Z,52.62
2018-03-03T04:25:54.010Z,52.67
2018-03-03T04:28:22.377Z,53.45
2018-03-03T04:30:50.750Z,56.47
2018-03-03T04:33:19.127Z,63.53
2018-03-03T04:35:47.484Z,60.38
2018-03-03T04:38:15.854Z,63.40
2018-03-03T04:40:44.163Z,67.18
2018-03-03T04:43:12.487Z,60.33
2018-03-03T04:45:40.801Z,64.20
2018-03-03T04:48:09.178Z,61.28
2018-03-03T04:50:37.563Z,69.50
2018-03-03T04:53:05.913Z,62.62
2018-03-03T04:55:34.302Z,64.75
2018-03-03T04:58:02.714Z,59.95
2018-03-03T05:17:25.289Z,64.22
2018-03-03T05:20:13.588Z,58.85
2018-03-03T05:22:47.010Z,61.08
2018-03-03T05:25:21.289Z,61.67
2018-03-03T05:31:08.250Z,55.83
2018-03-03T05:47:19.215Z,57.67
2018-03-03T05:49:53.440Z,55.80
2018-03-03T05:52:38.671Z,63.05
2018-03-03T06:08:46.274Z,54.55
2018-03-03T06:11:14.634Z,54.67
2018-03-03T06:13:43.002Z,53.53
2018-03-03T06:16:11.352Z,53.78
2018-03-03T06:18:39.701Z,54.95
2018-03-03T06:21:08.065Z,57.22
2018-03-03T06:23:36.406Z,52.42
2018-03-03T06:26:04.724Z,56.20
2018-03-03T06:28:33.033Z,53.83
2018-03-03T06:31:01.362Z,51.45
2018-03-03T06:33:29.765Z,48.38
2018-03-03T06:35:58.096Z,51.15
2018-03-03T06:38:26.395Z,45.80
2018-03-03T06:40:54.716Z,46.50
2018-03-03T06:43:23.082Z,49.17
2018-03-03T06:45:51.434Z,47.65
2018-03-03T06:48:19.741Z,48.33
2018-03-03T06:50:48.087Z,49.22
2018-03-03T06:53:16.417Z,48.72
2018-03-03T06:55:44.753Z,48.08
2018-03-03T06:58:14.003Z,45.67
2018-03-03T07:00:42.368Z,46.33
2018-03-03T07:03:10.773Z,47.53
2018-03-03T07:05:39.072Z,45.50
2018-03-03T07:08:07.447Z,48.45
2018-03-03T07:10:35.779Z,43.67
2018-03-03T07:13:04.151Z,45.15
2018-03-03T07:15:33.448Z,43.22
2018-03-03T07:18:01.867Z,42.40
2018-03-03T07:20:30.247Z,44.58
2018-03-03T07:22:58.626Z,42.40
2018-03-03T07:25:26.942Z,45.47
2018-03-03T07:27:55.281Z,43.83
2018-03-03T07:30:23.590Z,44.83
2018-03-03T07:32:51.922Z,44.75
2018-03-03T07:35:20.269Z,54.72
2018-03-03T07:37:48.622Z,51.08
2018-03-03T07:40:16.944Z,49.97
2018-03-03T07:42:45.264Z,50.10
2018-03-03T07:45:13.604Z,50.60
2018-03-03T07:47:41.991Z,48.72
2018-03-03T07:50:10.374Z,49.40
2018-03-03T07:52:38.727Z,47.85
2018-03-03T07:55:07.101Z,48.30
2018-03-03T07:57:35.461Z,46.25
2018-03-03T08:00:03.797Z,48.75
2018-03-03T08:02:32.293Z,47.33
2018-03-03T08:05:00.679Z,46.58
2018-03-03T08:07:29.032Z,47.92
2018-03-03T08:09:57.459Z,47.38
2018-03-03T08:12:26.095Z,48.58
2018-03-03T08:14:54.451Z,48.90
2018-03-03T08:17:22.845Z,44.90
2018-03-03T08:19:51.201Z,45.63
2018-03-03T08:22:19.722Z,48.35
2018-03-03T08:24:48.233Z,46.70
2018-03-03T08:27:16.634Z,45.45
2018-03-03T08:29:44.967Z,46.30
2018-03-03T08:32:13.470Z,45.63
2018-03-03T08:34:41.793Z,44.13
2018-03-03T08:37:10.196Z,41.10
2018-03-03T08:39:38.597Z,46.80
2018-03-03T08:42:06.930Z,46.60
2018-03-03T08:44:35.262Z,49.03
2018-03-03T08:47:03.595Z,46.33
2018-03-03T08:49:32.060Z,46.42
2018-03-03T08:52:00.390Z,45.20
2018-03-03T08:54:28.710Z,43.58
2018-03-03T08:56:57.027Z,45.12
2018-03-03T08:59:25.371Z,46.20
2018-03-03T09:01:53.790Z,46.10
2018-03-03T09:04:22.148Z,43.87
2018-03-03T09:06:50.496Z,42.85
2018-03-03T09:09:18.898Z,44.83
2018-03-03T09:11:47.229Z,46.37
2018-03-03T09:14:15.605Z,44.05
2018-03-03T09:16:43.947Z,44.15
2018-03-03T09:19:12.304Z,45.67
2018-03-03T09:21:40.644Z,44.78
2018-03-03T09:24:08.974Z,42.10
2018-03-03T09:26:37.322Z,44.97
2018-03-03T09:29:05.665Z,41.65
2018-03-03T09:31:33.984Z,42.88
2018-03-03T09:34:02.389Z,43.60
2018-03-03T09:36:30.774Z,44.17
2018-03-03T09:38:59.224Z,42.50
2018-03-03T09:41:27.604Z,41.67
2018-03-03T09:43:56.051Z,40.53
2018-03-03T09:46:24.435Z,41.15
2018-03-03T09:48:52.758Z,42.20
2018-03-03T09:51:21.107Z,44.38
2018-03-03T09:53:49.454Z,41.83
2018-03-03T09:56:17.797Z,42.42
2018-03-03T09:58:46.163Z,44.60
2018-03-03T10:01:14.576Z,38.55
2018-03-03T10:03:42.945Z,42.10
2018-03-03T10:06:11.324Z,40.75
2018-03-03T10:08:39.658Z,42.58
2018-03-03T10:11:08.122Z,43.85
2018-03-03T10:13:36.547Z,48.63
2018-03-03T10:16:04.919Z,45.15
2018-03-03T10:18:33.360Z,43.87
2018-03-03T10:21:01.783Z,43.10
2018-03-03T10:23:30.162Z,44.42
2018-03-03T10:25:58.543Z,44.22
2018-03-03T10:28:26.926Z,44.53
2018-03-03T10:30:55.325Z,43.47
2018-03-03T10:33:24.316Z,44.53
2018-03-03T10:35:52.645Z,44.63
2018-03-03T10:38:21.080Z,45.38
2018-03-03T10:40:49.414Z,45.20
2018-03-03T10:43:17.747Z,51.13
2018-03-03T10:45:46.107Z,44.38
2018-03-03T10:48:14.429Z,45.63
2018-03-03T10:50:42.835Z,45.95
2018-03-03T10:53:11.366Z,47.22
2018-03-03T10:55:39.730Z,46.70
2018-03-03T10:58:08.107Z,45.38
2018-03-03T11:00:36.556Z,47.25
2018-03-03T11:03:04.953Z,47.00
2018-03-03T11:05:33.455Z,46.33
2018-03-03T11:08:02.186Z,46.47
2018-03-03T11:10:30.553Z,46.92
2018-03-03T11:12:58.932Z,46.53
2018-03-03T11:15:27.312Z,46.95
2018-03-03T11:17:55.697Z,47.85
2018-03-03T11:20:24.043Z,46.15
2018-03-03T11:22:52.406Z,47.80
2018-03-03T11:25:20.797Z,49.90
2018-03-03T11:27:49.141Z,48.70
2018-03-03T11:30:17.522Z,49.13
2018-03-03T11:32:45.872Z,49.70
2018-03-03T11:35:14.230Z,49.47
2018-03-03T11:37:42.611Z,50.00
2018-03-03T11:40:11.059Z,50.25
2018-03-03T11:42:39.567Z,48.65
2018-03-03T11:45:07.917Z,46.88
2018-03-03T11:47:36.266Z,48.00
2018-03-03T11:50:04.625Z,50.17
2018-03-03T11:52:33.076Z,48.50
2018-03-03T11:55:01.544Z,47.60
2018-03-03T11:57:29.914Z,47.97
2018-03-03T11:59:58.259Z,46.95
2018-03-03T12:02:26.662Z,48.92
2018-03-03T12:04:55.015Z,51.53
2018-03-03T12:07:23.373Z,46.75
2018-03-03T12:09:51.711Z,43.58
2018-03-03T12:12:20.071Z,46.50
2018-03-03T12:14:48.432Z,44.30
2018-03-03T12:17:16.818Z,46.50
2018-03-03T12:19:45.225Z,47.92
2018-03-03T12:22:13.576Z,46.22
2018-03-03T12:24:41.994Z,49.13
2018-03-03T12:27:10.411Z,47.62
2018-03-03T12:29:38.723Z,47.65
2018-03-03T12:32:07.123Z,46.88
2018-03-03T12:34:35.509Z,45.25
2018-03-03T12:37:03.850Z,47.65
2018-03-03T12:39:32.246Z,46.08
2018-03-03T12:42:00.581Z,47.45
2018-03-03T12:44:28.948Z,47.50
2018-03-03T12:46:57.319Z,46.37
2018-03-03T12:49:25.651Z,47.70
2018-03-03T12:51:53.975Z,49.00
2018-03-03T12:54:22.356Z,46.17
2018-03-03T12:56:50.769Z,49.80
2018-03-03T12:59:19.229Z,47.65
2018-03-03T13:01:47.526Z,47.83
2018-03-03T13:04:15.880Z,46.75
2018-03-03T13:06:44.318Z,47.88
2018-03-03T13:09:12.644Z,51.20
2018-03-03T13:11:41.035Z,50.08
2018-03-03T13:14:09.413Z,49.60
2018-03-03T13:16:37.779Z,48.80
2018-03-03T13:19:06.958Z,49.60
2018-03-03T13:21:35.346Z,47.38
2018-03-03T13:24:03.754Z,49.88
2018-03-03T13:26:32.125Z,49.70
2018-03-03T13:29:00.436Z,49.33
2018-03-03T13:31:28.796Z,48.75
2018-03-03T13:33:57.141Z,48.55
2018-03-03T13:36:25.481Z,48.25
2018-03-03T13:38:53.826Z,49.50
2018-03-03T13:41:22.202Z,48.53
2018-03-03T13:43:50.583Z,49.97
2018-03-03T13:46:18.931Z,48.30
2018-03-03T13:48:47.298Z,48.28
2018-03-03T13:51:15.667Z,50.42
2018-03-03T13:53:43.982Z,50.63
2018-03-03T13:56:12.368Z,49.53
2018-03-03T13:58:40.816Z,50.60
2018-03-03T14:01:09.175Z,50.50
2018-03-03T14:03:37.602Z,51.17
2018-03-03T14:06:05.965Z,46.70
2018-03-03T14:08:34.331Z,49.75
2018-03-03T14:11:02.706Z,48.33
2018-03-03T14:13:31.048Z,47.90
2018-03-03T14:15:59.433Z,48.90
2018-03-03T14:18:27.873Z,49.00
2018-03-03T14:20:56.273Z,49.70
2018-03-03T14:23:24.658Z,49.58
2018-03-03T14:25:53.100Z,50.33
2018-03-03T14:28:21.599Z,48.15
2018-03-03T14:30:50.200Z,48.33
2018-03-03T14:33:18.568Z,48.45
2018-03-03T14:35:46.914Z,51.42
2018-03-03T14:38:15.266Z,52.22
2018-03-03T14:40:43.648Z,50.10
2018-03-03T14:43:12.071Z,51.60
2018-03-03T14:45:40.395Z,48.72
2018-03-03T14:48:08.765Z,51.08
